sensor_id;sensor_type;location;lat;lon;timestamp;P1;durP1;ratioP1;P2;durP2;ratioP2
53857;SDS011;39763;51.188;6.690;2022-07-25T00:00:46;12.98;;;8.80;;
53857;SDS011;39763;51.188;6.690;2022-07-25T00:02:18;14.68;;;8.52;;
53857;SDS011;39763;51.188;6.690;2022-07-25T00:03:51;12.43;;;8.00;;
53857;SDS011;39763;51.188;6.690;2022-07-25T00:05:27;13.30;;;8.82;;
53857;SDS011;39763;51.188;6.690;2022-07-25T00:07:00;13.57;;;8.45;;
53857;SDS011;39763;51.188;6.690;2022-07-25T00:08:31;15.57;;;9.05;;
53857;SDS011;39763;51.188;6.690;2022-07-25T00:10:04;12.48;;;8.45;;
53857;SDS011;39763;51.188;6.690;2022-07-25T00:11:36;14.73;;;9.23;;
53857;SDS011;39763;51.188;6.690;2022-07-25T00:13:08;16.98;;;9.38;;
53857;SDS011;39763;51.188;6.690;2022-07-25T00:14:40;12.65;;;8.52;;
53857;SDS011;39763;51.188;6.690;2022-07-25T00:16:11;12.85;;;9.05;;
53857;SDS011;39763;51.188;6.690;2022-07-25T00:17:43;15.48;;;8.65;;
53857;SDS011;39763;51.188;6.690;2022-07-25T00:19:15;13.70;;;8.02;;
53857;SDS011;39763;51.188;6.690;2022-07-25T00:20:47;14.00;;;8.13;;
53857;SDS011;39763;51.188;6.690;2022-07-25T00:22:20;13.38;;;8.27;;
53857;SDS011;39763;51.188;6.690;2022-07-25T00:23:52;13.48;;;8.52;;
53857;SDS011;39763;51.188;6.690;2022-07-25T00:25:24;14.40;;;8.32;;
53857;SDS011;39763;51.188;6.690;2022-07-25T00:26:55;14.15;;;8.60;;
53857;SDS011;39763;51.188;6.690;2022-07-25T00:28:27;12.40;;;8.40;;
53857;SDS011;39763;51.188;6.690;2022-07-25T00:29:59;14.48;;;8.77;;
53857;SDS011;39763;51.188;6.690;2022-07-25T00:31:31;13.75;;;8.02;;
53857;SDS011;39763;51.188;6.690;2022-07-25T00:33:03;13.60;;;7.82;;
53857;SDS011;39763;51.188;6.690;2022-07-25T00:34:35;12.95;;;8.48;;
53857;SDS011;39763;51.188;6.690;2022-07-25T00:36:07;13.68;;;8.10;;
53857;SDS011;39763;51.188;6.690;2022-07-25T00:37:40;14.55;;;8.57;;
53857;SDS011;39763;51.188;6.690;2022-07-25T00:39:12;13.65;;;8.35;;
53857;SDS011;39763;51.188;6.690;2022-07-25T00:40:44;13.10;;;8.25;;
53857;SDS011;39763;51.188;6.690;2022-07-25T00:42:25;13.60;;;8.63;;
53857;SDS011;39763;51.188;6.690;2022-07-25T00:43:56;15.85;;;8.52;;
53857;SDS011;39763;51.188;6.690;2022-07-25T00:45:28;14.18;;;8.10;;
53857;SDS011;39763;51.188;6.690;2022-07-25T00:47:00;12.70;;;8.20;;
53857;SDS011;39763;51.188;6.690;2022-07-25T00:48:32;13.38;;;7.78;;
53857;SDS011;39763;51.188;6.690;2022-07-25T00:50:04;15.45;;;8.43;;
53857;SDS011;39763;51.188;6.690;2022-07-25T00:51:38;12.00;;;8.50;;
53857;SDS011;39763;51.188;6.690;2022-07-25T00:53:11;14.15;;;8.48;;
53857;SDS011;39763;51.188;6.690;2022-07-25T00:54:44;14.85;;;8.23;;
53857;SDS011;39763;51.188;6.690;2022-07-25T00:56:16;13.40;;;8.77;;
53857;SDS011;39763;51.188;6.690;2022-07-25T00:57:48;12.70;;;7.63;;
53857;SDS011;39763;51.188;6.690;2022-07-25T00:59:20;15.55;;;8.48;;
53857;SDS011;39763;51.188;6.690;2022-07-25T01:00:52;13.38;;;8.27;;
53857;SDS011;39763;51.188;6.690;2022-07-25T01:02:24;13.30;;;8.00;;
53857;SDS011;39763;51.188;6.690;2022-07-25T01:03:56;17.08;;;8.35;;
53857;SDS011;39763;51.188;6.690;2022-07-25T01:05:28;15.15;;;8.35;;
53857;SDS011;39763;51.188;6.690;2022-07-25T01:07:00;13.27;;;7.80;;
53857;SDS011;39763;51.188;6.690;2022-07-25T01:08:34;15.07;;;8.68;;
53857;SDS011;39763;51.188;6.690;2022-07-25T01:10:06;14.63;;;8.10;;
53857;SDS011;39763;51.188;6.690;2022-07-25T01:11:39;13.18;;;7.95;;
53857;SDS011;39763;51.188;6.690;2022-07-25T01:13:11;13.48;;;8.60;;
53857;SDS011;39763;51.188;6.690;2022-07-25T01:14:43;12.85;;;7.70;;
53857;SDS011;39763;51.188;6.690;2022-07-25T01:16:15;12.82;;;8.45;;
53857;SDS011;39763;51.188;6.690;2022-07-25T01:17:47;13.45;;;8.32;;
53857;SDS011;39763;51.188;6.690;2022-07-25T01:19:19;12.48;;;8.27;;
53857;SDS011;39763;51.188;6.690;2022-07-25T01:20:52;16.10;;;9.15;;
53857;SDS011;39763;51.188;6.690;2022-07-25T01:22:24;14.18;;;8.98;;
53857;SDS011;39763;51.188;6.690;2022-07-25T01:23:55;14.23;;;8.48;;
53857;SDS011;39763;51.188;6.690;2022-07-25T01:25:27;15.32;;;9.30;;
53857;SDS011;39763;51.188;6.690;2022-07-25T01:26:59;13.98;;;8.60;;
53857;SDS011;39763;51.188;6.690;2022-07-25T01:28:31;15.63;;;8.38;;
53857;SDS011;39763;51.188;6.690;2022-07-25T01:30:04;13.57;;;8.70;;
53857;SDS011;39763;51.188;6.690;2022-07-25T01:31:38;19.13;;;10.18;;
53857;SDS011;39763;51.188;6.690;2022-07-25T01:33:13;15.05;;;8.55;;
53857;SDS011;39763;51.188;6.690;2022-07-25T01:34:46;13.45;;;8.90;;
53857;SDS011;39763;51.188;6.690;2022-07-25T01:36:19;12.98;;;8.18;;
53857;SDS011;39763;51.188;6.690;2022-07-25T01:37:50;13.43;;;8.23;;
53857;SDS011;39763;51.188;6.690;2022-07-25T01:39:22;14.30;;;9.05;;
53857;SDS011;39763;51.188;6.690;2022-07-25T01:40:54;14.63;;;8.90;;
53857;SDS011;39763;51.188;6.690;2022-07-25T01:42:25;13.50;;;8.95;;
53857;SDS011;39763;51.188;6.690;2022-07-25T01:43:58;13.75;;;8.18;;
53857;SDS011;39763;51.188;6.690;2022-07-25T01:45:30;14.23;;;8.73;;
53857;SDS011;39763;51.188;6.690;2022-07-25T01:47:02;15.07;;;8.63;;
53857;SDS011;39763;51.188;6.690;2022-07-25T01:48:33;14.35;;;8.27;;
53857;SDS011;39763;51.188;6.690;2022-07-25T01:50:06;14.35;;;8.25;;
53857;SDS011;39763;51.188;6.690;2022-07-25T01:51:40;13.65;;;8.48;;
53857;SDS011;39763;51.188;6.690;2022-07-25T01:53:12;15.75;;;8.50;;
53857;SDS011;39763;51.188;6.690;2022-07-25T01:54:43;14.43;;;8.63;;
53857;SDS011;39763;51.188;6.690;2022-07-25T01:56:15;16.45;;;8.93;;
53857;SDS011;39763;51.188;6.690;2022-07-25T01:57:49;15.82;;;9.15;;
53857;SDS011;39763;51.188;6.690;2022-07-25T01:59:22;17.77;;;9.45;;
53857;SDS011;39763;51.188;6.690;2022-07-25T02:00:54;15.50;;;8.68;;
53857;SDS011;39763;51.188;6.690;2022-07-25T02:02:26;14.00;;;8.45;;
53857;SDS011;39763;51.188;6.690;2022-07-25T02:03:58;14.55;;;8.98;;
53857;SDS011;39763;51.188;6.690;2022-07-25T02:05:30;14.70;;;8.65;;
53857;SDS011;39763;51.188;6.690;2022-07-25T02:07:03;16.83;;;9.07;;
53857;SDS011;39763;51.188;6.690;2022-07-25T02:08:36;14.63;;;9.30;;
53857;SDS011;39763;51.188;6.690;2022-07-25T02:10:08;14.75;;;8.48;;
53857;SDS011;39763;51.188;6.690;2022-07-25T02:11:40;15.23;;;8.43;;
53857;SDS011;39763;51.188;6.690;2022-07-25T02:13:12;14.27;;;8.68;;
53857;SDS011;39763;51.188;6.690;2022-07-25T02:14:44;13.43;;;8.43;;
53857;SDS011;39763;51.188;6.690;2022-07-25T02:16:15;14.77;;;8.95;;
53857;SDS011;39763;51.188;6.690;2022-07-25T02:17:48;15.00;;;8.50;;
53857;SDS011;39763;51.188;6.690;2022-07-25T02:19:19;15.15;;;8.70;;
53857;SDS011;39763;51.188;6.690;2022-07-25T02:20:51;14.23;;;8.65;;
53857;SDS011;39763;51.188;6.690;2022-07-25T02:22:24;13.90;;;8.43;;
53857;SDS011;39763;51.188;6.690;2022-07-25T02:23:56;15.48;;;8.50;;
53857;SDS011;39763;51.188;6.690;2022-07-25T02:25:28;16.55;;;8.98;;
53857;SDS011;39763;51.188;6.690;2022-07-25T02:27:00;15.20;;;8.32;;
53857;SDS011;39763;51.188;6.690;2022-07-25T02:28:32;14.73;;;8.75;;
53857;SDS011;39763;51.188;6.690;2022-07-25T02:30:04;13.18;;;8.45;;
53857;SDS011;39763;51.188;6.690;2022-07-25T02:31:36;12.60;;;7.72;;
53857;SDS011;39763;51.188;6.690;2022-07-25T02:33:08;14.38;;;9.00;;
53857;SDS011;39763;51.188;6.690;2022-07-25T02:34:40;13.43;;;8.43;;
53857;SDS011;39763;51.188;6.690;2022-07-25T02:36:11;14.90;;;8.23;;
53857;SDS011;39763;51.188;6.690;2022-07-25T02:37:45;15.10;;;8.35;;
53857;SDS011;39763;51.188;6.690;2022-07-25T02:39:17;13.32;;;8.40;;
53857;SDS011;39763;51.188;6.690;2022-07-25T02:40:49;14.25;;;8.35;;
53857;SDS011;39763;51.188;6.690;2022-07-25T02:42:22;14.35;;;8.48;;
53857;SDS011;39763;51.188;6.690;2022-07-25T02:43:54;13.70;;;8.75;;
53857;SDS011;39763;51.188;6.690;2022-07-25T02:45:26;13.20;;;8.45;;
53857;SDS011;39763;51.188;6.690;2022-07-25T02:47:00;13.88;;;8.30;;
53857;SDS011;39763;51.188;6.690;2022-07-25T02:48:32;14.70;;;8.35;;
53857;SDS011;39763;51.188;6.690;2022-07-25T02:50:04;14.50;;;8.55;;
53857;SDS011;39763;51.188;6.690;2022-07-25T02:51:38;15.00;;;8.18;;
53857;SDS011;39763;51.188;6.690;2022-07-25T02:53:11;13.60;;;8.55;;
53857;SDS011;39763;51.188;6.690;2022-07-25T02:54:43;14.45;;;8.13;;
53857;SDS011;39763;51.188;6.690;2022-07-25T02:56:15;15.95;;;8.60;;
53857;SDS011;39763;51.188;6.690;2022-07-25T02:57:47;13.00;;;8.02;;
53857;SDS011;39763;51.188;6.690;2022-07-25T02:59:19;14.48;;;8.52;;
53857;SDS011;39763;51.188;6.690;2022-07-25T03:00:50;13.00;;;8.45;;
53857;SDS011;39763;51.188;6.690;2022-07-25T03:02:22;12.98;;;8.05;;
53857;SDS011;39763;51.188;6.690;2022-07-25T03:03:54;12.18;;;7.32;;
53857;SDS011;39763;51.188;6.690;2022-07-25T03:05:26;13.25;;;8.05;;
53857;SDS011;39763;51.188;6.690;2022-07-25T03:06:58;12.43;;;7.82;;
53857;SDS011;39763;51.188;6.690;2022-07-25T03:08:31;14.65;;;8.45;;
53857;SDS011;39763;51.188;6.690;2022-07-25T03:10:03;16.80;;;8.70;;
53857;SDS011;39763;51.188;6.690;2022-07-25T03:11:41;13.75;;;8.23;;
53857;SDS011;39763;51.188;6.690;2022-07-25T03:13:13;12.68;;;7.50;;
53857;SDS011;39763;51.188;6.690;2022-07-25T03:14:45;13.60;;;8.05;;
53857;SDS011;39763;51.188;6.690;2022-07-25T03:16:17;16.08;;;8.65;;
53857;SDS011;39763;51.188;6.690;2022-07-25T03:17:49;12.57;;;7.78;;
53857;SDS011;39763;51.188;6.690;2022-07-25T03:19:20;15.65;;;8.65;;
53857;SDS011;39763;51.188;6.690;2022-07-25T03:20:53;12.73;;;7.75;;
53857;SDS011;39763;51.188;6.690;2022-07-25T03:22:25;12.85;;;8.10;;
53857;SDS011;39763;51.188;6.690;2022-07-25T03:23:58;15.30;;;8.18;;
53857;SDS011;39763;51.188;6.690;2022-07-25T03:25:30;12.63;;;7.65;;
53857;SDS011;39763;51.188;6.690;2022-07-25T03:27:02;13.82;;;8.50;;
53857;SDS011;39763;51.188;6.690;2022-07-25T03:28:34;13.00;;;8.10;;
53857;SDS011;39763;51.188;6.690;2022-07-25T03:30:06;11.98;;;7.97;;
53857;SDS011;39763;51.188;6.690;2022-07-25T03:31:39;13.07;;;7.78;;
53857;SDS011;39763;51.188;6.690;2022-07-25T03:33:11;13.25;;;7.95;;
53857;SDS011;39763;51.188;6.690;2022-07-25T03:34:42;12.23;;;7.95;;
53857;SDS011;39763;51.188;6.690;2022-07-25T03:36:14;13.95;;;8.52;;
53857;SDS011;39763;51.188;6.690;2022-07-25T03:37:46;13.00;;;8.05;;
53857;SDS011;39763;51.188;6.690;2022-07-25T03:39:19;13.68;;;8.57;;
53857;SDS011;39763;51.188;6.690;2022-07-25T03:40:51;13.02;;;8.05;;
53857;SDS011;39763;51.188;6.690;2022-07-25T03:42:22;13.25;;;7.82;;
53857;SDS011;39763;51.188;6.690;2022-07-25T03:43:57;13.32;;;7.63;;
53857;SDS011;39763;51.188;6.690;2022-07-25T03:45:29;12.32;;;7.63;;
53857;SDS011;39763;51.188;6.690;2022-07-25T03:47:00;12.30;;;7.70;;
53857;SDS011;39763;51.188;6.690;2022-07-25T03:48:32;14.82;;;7.93;;
53857;SDS011;39763;51.188;6.690;2022-07-25T03:50:04;12.15;;;7.40;;
53857;SDS011;39763;51.188;6.690;2022-07-25T03:51:36;15.85;;;8.10;;
53857;SDS011;39763;51.188;6.690;2022-07-25T03:53:08;12.38;;;7.70;;
53857;SDS011;39763;51.188;6.690;2022-07-25T03:54:42;12.15;;;7.72;;
53857;SDS011;39763;51.188;6.690;2022-07-25T03:56:14;13.60;;;7.57;;
53857;SDS011;39763;51.188;6.690;2022-07-25T03:57:45;13.05;;;7.70;;
53857;SDS011;39763;51.188;6.690;2022-07-25T03:59:18;12.02;;;7.60;;
53857;SDS011;39763;51.188;6.690;2022-07-25T04:00:50;12.63;;;7.75;;
53857;SDS011;39763;51.188;6.690;2022-07-25T04:02:22;12.88;;;7.57;;
53857;SDS011;39763;51.188;6.690;2022-07-25T04:03:54;13.38;;;8.05;;
53857;SDS011;39763;51.188;6.690;2022-07-25T04:05:26;13.18;;;7.65;;
53857;SDS011;39763;51.188;6.690;2022-07-25T04:06:58;11.90;;;7.65;;
53857;SDS011;39763;51.188;6.690;2022-07-25T04:08:29;13.02;;;7.60;;
53857;SDS011;39763;51.188;6.690;2022-07-25T04:10:02;13.13;;;7.50;;
53857;SDS011;39763;51.188;6.690;2022-07-25T04:11:35;13.20;;;7.45;;
53857;SDS011;39763;51.188;6.690;2022-07-25T04:13:08;12.13;;;7.72;;
53857;SDS011;39763;51.188;6.690;2022-07-25T04:14:40;13.27;;;7.63;;
53857;SDS011;39763;51.188;6.690;2022-07-25T04:16:12;12.52;;;8.05;;
53857;SDS011;39763;51.188;6.690;2022-07-25T04:17:53;12.98;;;8.15;;
53857;SDS011;39763;51.188;6.690;2022-07-25T04:19:25;13.18;;;7.88;;
53857;SDS011;39763;51.188;6.690;2022-07-25T04:20:59;11.63;;;7.43;;
53857;SDS011;39763;51.188;6.690;2022-07-25T04:22:31;13.35;;;7.88;;
53857;SDS011;39763;51.188;6.690;2022-07-25T04:24:03;11.88;;;7.55;;
53857;SDS011;39763;51.188;6.690;2022-07-25T04:25:36;14.38;;;7.90;;
53857;SDS011;39763;51.188;6.690;2022-07-25T04:27:08;12.48;;;7.80;;
53857;SDS011;39763;51.188;6.690;2022-07-25T04:28:40;14.50;;;7.65;;
53857;SDS011;39763;51.188;6.690;2022-07-25T04:30:12;12.20;;;7.80;;
53857;SDS011;39763;51.188;6.690;2022-07-25T04:31:55;12.68;;;7.65;;
53857;SDS011;39763;51.188;6.690;2022-07-25T04:33:27;14.10;;;8.43;;
53857;SDS011;39763;51.188;6.690;2022-07-25T04:34:59;14.35;;;7.97;;
53857;SDS011;39763;51.188;6.690;2022-07-25T04:36:30;12.48;;;7.25;;
53857;SDS011;39763;51.188;6.690;2022-07-25T04:38:02;12.38;;;7.43;;
53857;SDS011;39763;51.188;6.690;2022-07-25T04:39:40;14.73;;;7.80;;
53857;SDS011;39763;51.188;6.690;2022-07-25T04:41:14;13.50;;;7.57;;
53857;SDS011;39763;51.188;6.690;2022-07-25T04:42:46;12.82;;;7.10;;
53857;SDS011;39763;51.188;6.690;2022-07-25T04:44:18;14.70;;;8.00;;
53857;SDS011;39763;51.188;6.690;2022-07-25T04:45:49;13.38;;;7.38;;
53857;SDS011;39763;51.188;6.690;2022-07-25T04:47:21;12.57;;;7.40;;
53857;SDS011;39763;51.188;6.690;2022-07-25T04:48:54;12.00;;;7.45;;
53857;SDS011;39763;51.188;6.690;2022-07-25T04:50:26;12.90;;;7.60;;
53857;SDS011;39763;51.188;6.690;2022-07-25T04:51:58;11.93;;;7.70;;
53857;SDS011;39763;51.188;6.690;2022-07-25T04:53:30;12.43;;;7.55;;
53857;SDS011;39763;51.188;6.690;2022-07-25T04:55:02;17.13;;;8.45;;
53857;SDS011;39763;51.188;6.690;2022-07-25T04:56:36;13.65;;;7.80;;
53857;SDS011;39763;51.188;6.690;2022-07-25T04:58:08;12.68;;;7.80;;
53857;SDS011;39763;51.188;6.690;2022-07-25T04:59:40;12.63;;;7.40;;
53857;SDS011;39763;51.188;6.690;2022-07-25T05:01:11;12.88;;;8.07;;
53857;SDS011;39763;51.188;6.690;2022-07-25T05:02:43;14.73;;;7.97;;
53857;SDS011;39763;51.188;6.690;2022-07-25T05:04:15;13.10;;;8.38;;
53857;SDS011;39763;51.188;6.690;2022-07-25T05:05:47;14.88;;;8.30;;
53857;SDS011;39763;51.188;6.690;2022-07-25T05:07:19;12.68;;;8.05;;
53857;SDS011;39763;51.188;6.690;2022-07-25T05:08:50;12.88;;;7.97;;
53857;SDS011;39763;51.188;6.690;2022-07-25T05:10:22;12.90;;;7.35;;
53857;SDS011;39763;51.188;6.690;2022-07-25T05:11:56;11.93;;;7.85;;
53857;SDS011;39763;51.188;6.690;2022-07-25T05:13:28;13.48;;;8.43;;
53857;SDS011;39763;51.188;6.690;2022-07-25T05:14:59;13.90;;;8.13;;
53857;SDS011;39763;51.188;6.690;2022-07-25T05:16:31;13.88;;;8.10;;
53857;SDS011;39763;51.188;6.690;2022-07-25T05:18:03;12.13;;;7.10;;
53857;SDS011;39763;51.188;6.690;2022-07-25T05:19:35;13.05;;;7.43;;
53857;SDS011;39763;51.188;6.690;2022-07-25T05:21:08;13.27;;;7.68;;
53857;SDS011;39763;51.188;6.690;2022-07-25T05:22:40;12.40;;;8.15;;
53857;SDS011;39763;51.188;6.690;2022-07-25T05:24:12;13.30;;;7.85;;
53857;SDS011;39763;51.188;6.690;2022-07-25T05:25:44;13.57;;;8.20;;
53857;SDS011;39763;51.188;6.690;2022-07-25T05:27:17;13.98;;;8.65;;
53857;SDS011;39763;51.188;6.690;2022-07-25T05:28:49;12.43;;;7.93;;
53857;SDS011;39763;51.188;6.690;2022-07-25T05:30:21;12.77;;;8.27;;
53857;SDS011;39763;51.188;6.690;2022-07-25T05:31:52;13.60;;;8.05;;
53857;SDS011;39763;51.188;6.690;2022-07-25T05:33:24;13.82;;;8.30;;
53857;SDS011;39763;51.188;6.690;2022-07-25T05:34:56;12.88;;;8.25;;
53857;SDS011;39763;51.188;6.690;2022-07-25T05:36:28;13.57;;;8.20;;
53857;SDS011;39763;51.188;6.690;2022-07-25T05:38:00;12.88;;;7.93;;
53857;SDS011;39763;51.188;6.690;2022-07-25T05:39:32;14.30;;;8.10;;
53857;SDS011;39763;51.188;6.690;2022-07-25T05:41:03;13.73;;;8.15;;
53857;SDS011;39763;51.188;6.690;2022-07-25T05:42:40;12.27;;;8.00;;
53857;SDS011;39763;51.188;6.690;2022-07-25T05:44:12;14.20;;;8.32;;
53857;SDS011;39763;51.188;6.690;2022-07-25T05:45:43;14.52;;;8.20;;
53857;SDS011;39763;51.188;6.690;2022-07-25T05:47:17;12.98;;;7.78;;
53857;SDS011;39763;51.188;6.690;2022-07-25T05:48:51;12.95;;;8.43;;
53857;SDS011;39763;51.188;6.690;2022-07-25T05:50:23;12.55;;;7.55;;
53857;SDS011;39763;51.188;6.690;2022-07-25T05:51:55;14.15;;;8.60;;
53857;SDS011;39763;51.188;6.690;2022-07-25T05:53:27;14.30;;;8.65;;
53857;SDS011;39763;51.188;6.690;2022-07-25T05:54:59;11.32;;;7.70;;
53857;SDS011;39763;51.188;6.690;2022-07-25T05:56:31;12.95;;;7.85;;
53857;SDS011;39763;51.188;6.690;2022-07-25T05:58:04;12.05;;;8.10;;
53857;SDS011;39763;51.188;6.690;2022-07-25T05:59:36;13.88;;;8.43;;
53857;SDS011;39763;51.188;6.690;2022-07-25T06:01:10;12.73;;;7.40;;
53857;SDS011;39763;51.188;6.690;2022-07-25T06:02:42;12.50;;;8.43;;
53857;SDS011;39763;51.188;6.690;2022-07-25T06:04:14;14.65;;;8.18;;
53857;SDS011;39763;51.188;6.690;2022-07-25T06:05:46;14.60;;;8.80;;
53857;SDS011;39763;51.188;6.690;2022-07-25T06:07:18;15.48;;;10.80;;
53857;SDS011;39763;51.188;6.690;2022-07-25T06:08:50;14.23;;;8.02;;
53857;SDS011;39763;51.188;6.690;2022-07-25T06:10:24;14.52;;;10.52;;
53857;SDS011;39763;51.188;6.690;2022-07-25T06:11:56;14.73;;;10.15;;
53857;SDS011;39763;51.188;6.690;2022-07-25T06:13:32;13.55;;;7.35;;
53857;SDS011;39763;51.188;6.690;2022-07-25T06:15:05;13.15;;;7.80;;
53857;SDS011;39763;51.188;6.690;2022-07-25T06:16:42;12.25;;;7.47;;
53857;SDS011;39763;51.188;6.690;2022-07-25T06:18:14;12.90;;;7.53;;
53857;SDS011;39763;51.188;6.690;2022-07-25T06:19:46;12.73;;;7.75;;
53857;SDS011;39763;51.188;6.690;2022-07-25T06:21:18;13.35;;;8.20;;
53857;SDS011;39763;51.188;6.690;2022-07-25T06:22:49;13.73;;;8.35;;
53857;SDS011;39763;51.188;6.690;2022-07-25T06:24:21;11.70;;;7.30;;
53857;SDS011;39763;51.188;6.690;2022-07-25T06:25:53;12.77;;;7.38;;
53857;SDS011;39763;51.188;6.690;2022-07-25T06:27:25;12.20;;;7.80;;
53857;SDS011;39763;51.188;6.690;2022-07-25T06:29:01;14.32;;;7.88;;
53857;SDS011;39763;51.188;6.690;2022-07-25T06:30:33;12.70;;;7.13;;
53857;SDS011;39763;51.188;6.690;2022-07-25T06:32:05;13.77;;;8.25;;
53857;SDS011;39763;51.188;6.690;2022-07-25T06:33:36;12.73;;;7.93;;
53857;SDS011;39763;51.188;6.690;2022-07-25T06:35:08;15.63;;;8.27;;
53857;SDS011;39763;51.188;6.690;2022-07-25T06:36:40;13.23;;;7.60;;
53857;SDS011;39763;51.188;6.690;2022-07-25T06:38:12;11.40;;;7.35;;
53857;SDS011;39763;51.188;6.690;2022-07-25T06:39:44;14.40;;;7.60;;
53857;SDS011;39763;51.188;6.690;2022-07-25T06:41:16;12.52;;;7.65;;
53857;SDS011;39763;51.188;6.690;2022-07-25T06:42:48;12.30;;;7.28;;
53857;SDS011;39763;51.188;6.690;2022-07-25T06:44:21;12.27;;;7.15;;
53857;SDS011;39763;51.188;6.690;2022-07-25T06:45:53;12.25;;;7.07;;
53857;SDS011;39763;51.188;6.690;2022-07-25T06:47:24;12.30;;;7.55;;
53857;SDS011;39763;51.188;6.690;2022-07-25T06:48:56;12.25;;;7.43;;
53857;SDS011;39763;51.188;6.690;2022-07-25T06:50:28;13.32;;;7.40;;
53857;SDS011;39763;51.188;6.690;2022-07-25T06:52:00;13.82;;;8.00;;
53857;SDS011;39763;51.188;6.690;2022-07-25T06:53:32;12.40;;;7.53;;
53857;SDS011;39763;51.188;6.690;2022-07-25T06:55:04;13.68;;;7.43;;
53857;SDS011;39763;51.188;6.690;2022-07-25T06:56:37;13.20;;;7.15;;
53857;SDS011;39763;51.188;6.690;2022-07-25T06:58:09;12.30;;;7.50;;
53857;SDS011;39763;51.188;6.690;2022-07-25T06:59:42;13.05;;;7.30;;
53857;SDS011;39763;51.188;6.690;2022-07-25T07:01:16;12.38;;;7.28;;
53857;SDS011;39763;51.188;6.690;2022-07-25T07:02:51;12.80;;;7.40;;
53857;SDS011;39763;51.188;6.690;2022-07-25T07:04:26;12.45;;;7.07;;
53857;SDS011;39763;51.188;6.690;2022-07-25T07:05:58;15.65;;;7.40;;
53857;SDS011;39763;51.188;6.690;2022-07-25T07:07:32;14.30;;;8.13;;
53857;SDS011;39763;51.188;6.690;2022-07-25T07:09:05;12.68;;;7.30;;
53857;SDS011;39763;51.188;6.690;2022-07-25T07:10:37;13.30;;;8.27;;
53857;SDS011;39763;51.188;6.690;2022-07-25T07:12:10;13.35;;;7.28;;
53857;SDS011;39763;51.188;6.690;2022-07-25T07:13:42;14.18;;;7.03;;
53857;SDS011;39763;51.188;6.690;2022-07-25T07:15:16;13.15;;;6.78;;
53857;SDS011;39763;51.188;6.690;2022-07-25T07:16:48;11.20;;;7.00;;
53857;SDS011;39763;51.188;6.690;2022-07-25T07:18:20;12.48;;;7.00;;
53857;SDS011;39763;51.188;6.690;2022-07-25T07:19:52;11.77;;;7.43;;
53857;SDS011;39763;51.188;6.690;2022-07-25T07:21:24;14.23;;;7.88;;
53857;SDS011;39763;51.188;6.690;2022-07-25T07:22:56;12.98;;;7.45;;
53857;SDS011;39763;51.188;6.690;2022-07-25T07:24:28;13.10;;;7.10;;
53857;SDS011;39763;51.188;6.690;2022-07-25T07:25:59;15.30;;;7.63;;
53857;SDS011;39763;51.188;6.690;2022-07-25T07:27:31;13.05;;;7.55;;
53857;SDS011;39763;51.188;6.690;2022-07-25T07:29:03;12.48;;;7.93;;
53857;SDS011;39763;51.188;6.690;2022-07-25T07:30:36;14.48;;;7.43;;
53857;SDS011;39763;51.188;6.690;2022-07-25T07:32:28;12.80;;;7.75;;
53857;SDS011;39763;51.188;6.690;2022-07-25T07:34:00;15.10;;;6.97;;
53857;SDS011;39763;51.188;6.690;2022-07-25T07:35:33;12.23;;;7.28;;
53857;SDS011;39763;51.188;6.690;2022-07-25T07:37:06;11.32;;;7.07;;
53857;SDS011;39763;51.188;6.690;2022-07-25T07:38:38;13.02;;;7.43;;
53857;SDS011;39763;51.188;6.690;2022-07-25T07:40:10;12.38;;;7.30;;
53857;SDS011;39763;51.188;6.690;2022-07-25T07:41:47;13.98;;;7.88;;
53857;SDS011;39763;51.188;6.690;2022-07-25T07:43:19;11.85;;;7.15;;
53857;SDS011;39763;51.188;6.690;2022-07-25T07:44:59;15.55;;;7.65;;
53857;SDS011;39763;51.188;6.690;2022-07-25T07:46:32;11.40;;;7.22;;
53857;SDS011;39763;51.188;6.690;2022-07-25T07:48:04;11.63;;;7.22;;
53857;SDS011;39763;51.188;6.690;2022-07-25T07:49:37;13.73;;;7.80;;
53857;SDS011;39763;51.188;6.690;2022-07-25T07:51:08;12.70;;;7.13;;
53857;SDS011;39763;51.188;6.690;2022-07-25T07:52:40;14.48;;;8.13;;
53857;SDS011;39763;51.188;6.690;2022-07-25T07:54:12;12.68;;;7.38;;
53857;SDS011;39763;51.188;6.690;2022-07-25T07:56:02;12.02;;;6.68;;
53857;SDS011;39763;51.188;6.690;2022-07-25T07:57:34;13.27;;;6.85;;
53857;SDS011;39763;51.188;6.690;2022-07-25T07:59:06;14.00;;;7.45;;
53857;SDS011;39763;51.188;6.690;2022-07-25T08:00:38;12.73;;;7.57;;
53857;SDS011;39763;51.188;6.690;2022-07-25T08:02:12;12.35;;;7.20;;
53857;SDS011;39763;51.188;6.690;2022-07-25T08:03:44;14.13;;;7.15;;
53857;SDS011;39763;51.188;6.690;2022-07-25T08:05:19;14.15;;;7.68;;
53857;SDS011;39763;51.188;6.690;2022-07-25T08:06:51;12.23;;;7.20;;
53857;SDS011;39763;51.188;6.690;2022-07-25T08:08:23;11.68;;;7.30;;
53857;SDS011;39763;51.188;6.690;2022-07-25T08:10:01;13.30;;;7.38;;
53857;SDS011;39763;51.188;6.690;2022-07-25T08:11:33;12.82;;;7.25;;
53857;SDS011;39763;51.188;6.690;2022-07-25T08:13:11;12.05;;;6.82;;
53857;SDS011;39763;51.188;6.690;2022-07-25T08:14:44;13.27;;;6.85;;
53857;SDS011;39763;51.188;6.690;2022-07-25T08:16:16;16.33;;;7.10;;
53857;SDS011;39763;51.188;6.690;2022-07-25T08:17:49;14.40;;;7.68;;
53857;SDS011;39763;51.188;6.690;2022-07-25T08:19:22;12.80;;;7.22;;
53857;SDS011;39763;51.188;6.690;2022-07-25T08:20:53;12.23;;;6.72;;
53857;SDS011;39763;51.188;6.690;2022-07-25T08:22:33;11.90;;;7.13;;
53857;SDS011;39763;51.188;6.690;2022-07-25T08:24:06;12.55;;;6.70;;
53857;SDS011;39763;51.188;6.690;2022-07-25T08:25:38;12.23;;;6.90;;
53857;SDS011;39763;51.188;6.690;2022-07-25T08:27:12;12.77;;;6.47;;
53857;SDS011;39763;51.188;6.690;2022-07-25T08:28:43;13.15;;;7.35;;
53857;SDS011;39763;51.188;6.690;2022-07-25T08:30:17;12.23;;;7.30;;
53857;SDS011;39763;51.188;6.690;2022-07-25T08:31:49;14.18;;;7.70;;
53857;SDS011;39763;51.188;6.690;2022-07-25T08:33:23;10.77;;;6.78;;
53857;SDS011;39763;51.188;6.690;2022-07-25T08:34:55;12.73;;;7.15;;
53857;SDS011;39763;51.188;6.690;2022-07-25T08:36:27;11.65;;;6.80;;
53857;SDS011;39763;51.188;6.690;2022-07-25T08:38:05;14.23;;;7.25;;
53857;SDS011;39763;51.188;6.690;2022-07-25T08:39:37;11.82;;;7.10;;
53857;SDS011;39763;51.188;6.690;2022-07-25T08:41:09;11.45;;;6.70;;
53857;SDS011;39763;51.188;6.690;2022-07-25T08:42:40;11.93;;;7.43;;
53857;SDS011;39763;51.188;6.690;2022-07-25T08:44:13;13.88;;;7.00;;
53857;SDS011;39763;51.188;6.690;2022-07-25T08:45:48;12.63;;;7.13;;
53857;SDS011;39763;51.188;6.690;2022-07-25T08:47:21;14.18;;;7.63;;
53857;SDS011;39763;51.188;6.690;2022-07-25T08:48:55;12.50;;;6.90;;
53857;SDS011;39763;51.188;6.690;2022-07-25T08:50:27;13.10;;;7.60;;
53857;SDS011;39763;51.188;6.690;2022-07-25T08:52:00;12.50;;;7.40;;
53857;SDS011;39763;51.188;6.690;2022-07-25T08:53:32;13.80;;;7.20;;
53857;SDS011;39763;51.188;6.690;2022-07-25T08:55:07;13.00;;;7.03;;
53857;SDS011;39763;51.188;6.690;2022-07-25T08:56:40;11.75;;;7.13;;
53857;SDS011;39763;51.188;6.690;2022-07-25T08:58:13;12.80;;;7.60;;
53857;SDS011;39763;51.188;6.690;2022-07-25T08:59:46;13.43;;;7.10;;
53857;SDS011;39763;51.188;6.690;2022-07-25T09:01:18;11.55;;;6.63;;
53857;SDS011;39763;51.188;6.690;2022-07-25T09:02:50;12.40;;;7.15;;
53857;SDS011;39763;51.188;6.690;2022-07-25T09:04:24;12.23;;;6.75;;
53857;SDS011;39763;51.188;6.690;2022-07-25T09:05:57;12.82;;;7.80;;
53857;SDS011;39763;51.188;6.690;2022-07-25T09:07:32;12.18;;;6.82;;
53857;SDS011;39763;51.188;6.690;2022-07-25T09:09:05;12.07;;;6.78;;